.
WxDataArchive / Data Records for 2009-08-11
2009-08-10 August 2009 2009-08-12

Data Records for Tuesday, 11 August 2009

Time	Temp	Chill	HIndex	Humid	Dewpt	 Wind 	HiWind	WindDir	Rain 	Barom 
-----	----	-----	------	-----	-----	------	------	-------	-----	----- 
00:00	77.2	77.2	79.0	70	66.6	0	1	270	0.00	29.930 
00:05	77.0	77.0	78.8	70	66.4	0	1	270	0.00	29.930 
00:10	76.8	76.8	78.5	70	66.3	0	2	270	0.00	29.930 
00:15	76.7	76.7	78.4	71	66.6	0	1	270	0.00	29.930 
00:20	76.5	76.5	78.2	71	66.4	0	2	270	0.00	29.930 
00:25	76.5	76.5	78.1	72	66.8	0	1	270	0.00	29.930 
00:30	76.5	76.5	78.1	72	66.8	0	1	270	0.00	29.935 
00:35	76.3	76.3	77.9	72	66.6	0	2	270	0.00	29.935 
00:40	76.3	76.3	77.8	73	67.0	0	2	270	0.00	29.935 
00:45	76.1	76.1	77.6	73	66.8	0	1	270	0.00	29.940 
00:50	76.0	76.0	77.5	73	66.7	0	1	270	0.00	29.940 
00:55	76.0	76.0	77.5	73	66.7	0	1	270	0.00	29.940 
01:00	76.0	76.0	77.4	74	67.1	0	1	270	0.00	29.947 
01:05	75.8	75.8	77.2	74	66.9	0	1	270	0.00	29.947 
01:10	75.8	75.8	77.2	74	66.9	0	1	270	0.00	29.947 
01:15	75.6	75.6	76.9	75	67.1	0	0	---	0.00	29.935 
01:20	75.4	75.4	76.6	75	66.9	0	0	---	0.00	29.935 
01:25	75.3	75.3	76.4	76	67.2	0	1	270	0.00	29.935 
01:30	75.1	75.1	76.2	76	67.0	0	1	270	0.00	29.937 
01:35	74.9	74.9	74.9	77	67.2	0	0	---	0.00	29.937 
01:40	74.7	74.7	74.7	77	67.0	0	0	---	0.00	29.937 
01:45	74.6	74.6	74.6	78	67.3	0	0	---	0.00	29.934 
01:50	74.2	74.2	74.2	79	67.3	0	0	---	0.00	29.934 
01:55	74.0	74.0	74.0	79	67.1	0	0	---	0.00	29.934 
02:00	73.7	73.7	73.7	80	67.1	0	0	---	0.00	29.933 
02:05	73.5	73.5	73.5	81	67.3	0	1	270	0.00	29.933 
02:10	73.3	73.3	73.3	81	67.1	0	0	---	0.00	29.933 
02:15	73.2	73.2	73.2	82	67.4	0	0	---	0.00	29.929 
02:20	73.2	73.2	73.2	82	67.4	0	0	---	0.00	29.929 
02:25	73.0	73.0	73.0	82	67.2	0	0	---	0.00	29.929 
02:30	72.8	72.8	72.8	83	67.3	0	0	---	0.00	29.927 
02:35	72.8	72.8	72.8	83	67.3	0	0	---	0.00	29.927 
02:40	73.0	73.0	73.0	83	67.5	0	0	---	0.00	29.927 
02:45	73.2	73.2	73.2	83	67.7	0	1	270	0.00	29.929 
02:50	73.3	73.3	73.3	83	67.8	0	0	---	0.00	29.929 
02:55	73.3	73.3	73.3	83	67.8	0	0	---	0.00	29.929 
03:00	73.3	73.3	73.3	83	67.8	0	1	270	0.00	29.933 
03:05	73.5	73.5	73.5	82	67.7	0	1	270	0.00	29.933 
03:10	73.5	73.5	73.5	82	67.7	0	1	270	0.00	29.933 
03:15	73.5	73.5	73.5	82	67.7	0	0	---	0.00	29.927 
03:20	73.3	73.3	73.3	82	67.5	0	0	---	0.00	29.927 
03:25	73.3	73.3	73.3	83	67.8	0	1	270	0.00	29.927 
03:30	73.2	73.2	73.2	83	67.7	0	1	270	0.00	29.926 
03:35	73.2	73.2	73.2	83	67.7	0	1	270	0.00	29.926 
03:40	73.2	73.2	73.2	83	67.7	0	1	270	0.00	29.926 
03:45	73.2	73.2	73.2	83	67.7	0	1	270	0.00	29.924 
03:50	73.0	73.0	73.0	84	67.9	0	1	270	0.00	29.924 
03:55	73.0	73.0	73.0	84	67.9	0	1	270	0.00	29.924 
04:00	73.0	73.0	73.0	84	67.9	0	1	270	0.00	29.923 
04:05	72.8	72.8	72.8	84	67.7	0	1	270	0.00	29.923 
04:10	72.7	72.7	72.7	84	67.6	0	0	---	0.00	29.923 
04:15	72.5	72.5	72.5	85	67.7	0	0	---	0.00	29.927 
04:20	72.3	72.3	72.3	85	67.5	0	0	---	0.00	29.927 
04:25	72.1	72.1	72.1	85	67.3	0	0	---	0.00	29.927 
04:30	72.0	72.0	72.0	86	67.6	0	0	---	0.00	29.929 
04:35	71.8	71.8	71.8	86	67.4	0	0	---	0.00	29.929 
04:40	71.8	71.8	71.8	87	67.7	0	0	---	0.00	29.929 
04:45	71.6	71.6	71.6	87	67.5	0	1	270	0.00	29.934 
04:50	71.6	71.6	71.6	87	67.5	0	1	270	0.00	29.934 
04:55	71.6	71.6	71.6	88	67.8	0	1	270	0.00	29.934 
05:00	71.5	71.5	71.5	88	67.7	0	0	---	0.00	29.929 
05:05	71.5	71.5	71.5	88	67.7	0	0	---	0.00	29.929 
05:10	71.3	71.3	71.3	88	67.6	0	0	---	0.00	29.929 
05:15	71.1	71.1	71.1	88	67.4	0	0	---	0.00	29.927 
05:20	71.1	71.1	71.1	88	67.4	0	1	270	0.00	29.927 
05:25	70.9	70.9	70.9	89	67.5	0	1	270	0.00	29.927 
05:30	70.9	70.9	70.9	89	67.5	0	1	270	0.00	29.925 
05:35	70.9	70.9	70.9	89	67.5	0	0	---	0.00	29.925 
05:40	70.9	70.9	70.9	89	67.5	0	1	270	0.00	29.925 
05:45	70.8	70.8	70.8	89	67.4	0	0	---	0.00	29.930 
05:50	70.8	70.8	70.8	90	67.7	0	1	270	0.00	29.930 
05:55	70.8	70.8	70.8	90	67.7	0	1	270	0.00	29.930 
06:00	70.8	70.8	70.8	90	67.7	0	0	---	0.00	29.936 
06:05	70.6	70.6	70.6	90	67.5	0	0	---	0.00	29.936 
06:10	70.6	70.6	70.6	90	67.5	0	0	---	0.00	29.936 
06:15	70.4	70.4	70.4	90	67.3	0	0	---	0.00	29.940 
06:20	70.4	70.4	70.4	91	67.6	0	0	---	0.00	29.940 
06:25	70.3	70.3	70.3	91	67.5	0	0	---	0.00	29.940 
06:30	70.1	70.1	70.1	91	67.3	0	0	---	0.00	29.945 
06:35	70.1	70.1	70.1	91	67.3	0	0	---	0.00	29.945 
06:40	69.9	69.9	69.9	91	67.1	0	0	---	0.00	29.945 
06:45	69.9	69.9	69.9	92	67.5	0	0	---	0.00	29.947 
06:50	69.8	69.8	69.8	92	67.4	0	0	---	0.00	29.947 
06:55	69.8	69.8	69.8	92	67.4	0	0	---	0.00	29.947 
07:00	69.6	69.6	69.6	92	67.2	0	0	---	0.00	29.948 
07:05	69.4	69.4	69.4	92	67.0	0	0	---	0.00	29.948 
07:10	69.4	69.4	69.4	92	67.0	0	0	---	0.00	29.948 
07:15	69.6	69.6	69.6	92	67.2	0	0	---	0.00	29.956 
07:20	69.6	69.6	69.6	93	67.5	0	0	---	0.00	29.956 
07:25	69.6	69.6	69.6	93	67.5	0	0	---	0.00	29.956 
07:30	69.8	69.8	69.8	93	67.7	0	0	---	0.00	29.957 
07:35	69.8	69.8	69.8	93	67.7	0	0	---	0.00	29.957 
07:40	69.9	69.9	69.9	93	67.8	0	0	---	0.00	29.957 
07:45	70.1	70.1	70.1	93	68.0	0	0	---	0.00	29.954 
07:50	70.3	70.3	70.3	93	68.2	0	1	270	0.00	29.954 
07:55	70.4	70.4	70.4	93	68.3	0	0	---	0.00	29.954 
08:00	70.8	70.8	70.8	93	68.7	0	0	---	0.00	29.957 
08:05	71.3	71.3	71.3	92	68.8	0	1	270	0.00	29.957 
08:10	71.6	71.6	71.6	92	69.1	0	1	270	0.00	29.957 
08:15	72.0	72.0	72.0	91	69.2	0	1	270	0.00	29.960 
08:20	72.3	72.3	72.3	90	69.2	0	2	270	0.00	29.960 
08:25	72.7	72.7	72.7	89	69.3	0	1	270	0.00	29.960 
08:30	73.0	73.0	73.0	88	69.2	0	2	270	0.00	29.968 
08:35	73.2	73.2	73.2	87	69.1	1	2	270	0.00	29.968 
08:40	73.3	73.3	73.3	86	68.8	1	3	270	0.00	29.968 
08:45	73.7	73.7	73.7	86	69.2	0	2	270	0.00	29.965 
08:50	73.7	73.7	73.7	85	68.9	0	1	270	0.00	29.965 
08:55	73.9	73.9	73.9	85	69.1	0	1	270	0.00	29.965 
09:00	73.9	73.9	73.9	84	68.7	0	1	270	0.00	29.966 
09:05	74.0	74.0	74.0	84	68.8	0	2	270	0.00	29.966 
09:10	73.9	73.9	73.9	83	68.4	0	2	270	0.00	29.966 
09:15	74.0	74.0	74.0	84	68.8	0	1	270	0.00	29.971 
09:20	74.4	74.4	74.4	84	69.2	0	1	270	0.00	29.971 
09:25	74.9	74.9	74.9	83	69.4	1	2	270	0.00	29.971 
09:30	75.3	75.3	75.9	81	69.1	0	2	270	0.00	29.965 
09:35	75.6	75.6	76.3	81	69.3	0	2	270	0.00	29.965 
09:40	76.0	76.0	77.0	80	69.4	0	2	270	0.00	29.965 
09:45	76.3	76.3	77.5	79	69.3	0	1	270	0.00	29.970 
09:50	76.5	76.5	77.9	78	69.1	1	3	270	0.00	29.970 
09:55	76.7	76.7	78.2	78	69.3	1	3	270	0.00	29.970 
10:00	76.8	76.8	78.4	77	69.0	0	2	270	0.00	29.970 
10:05	77.4	77.4	79.3	77	69.6	0	1	270	0.00	29.970 
10:10	77.9	77.9	80.0	75	69.3	0	2	270	0.00	29.970 
10:15	78.1	78.1	80.3	74	69.1	0	1	270	0.00	29.971 
10:20	78.1	78.1	80.3	74	69.1	1	2	270	0.00	29.971 
10:25	77.9	77.9	80.0	73	68.5	1	2	270	0.00	29.971 
10:30	77.9	77.9	80.0	74	68.9	0	1	270	0.00	29.971 
10:35	78.3	78.3	80.6	73	68.9	1	2	270	0.00	29.971 
10:40	78.8	78.8	81.1	70	68.2	1	2	270	0.00	29.971 
10:45	78.5	78.5	80.8	72	68.7	0	2	270	0.00	29.971 
10:50	78.3	78.3	80.6	73	68.9	0	1	270	0.00	29.971 
10:55	78.3	78.3	80.5	72	68.5	0	1	270	0.00	29.971 
11:00	78.1	78.1	80.2	71	67.9	0	1	270	0.00	29.973 
11:05	77.9	77.9	80.0	73	68.5	0	1	292	0.00	29.973 
11:10	78.5	78.5	80.8	71	68.3	0	2	292	0.00	29.973 
11:15	79.0	79.0	81.3	69	67.9	1	3	292	0.00	29.973 
11:20	79.6	79.6	82.3	70	68.9	0	2	292	0.00	29.973 
11:25	79.6	79.6	82.2	69	68.5	1	3	292	0.00	29.973 
11:30	79.6	79.6	82.3	70	68.9	0	2	292	0.00	29.972 
11:35	79.9	79.9	82.5	67	67.9	1	3	292	0.00	29.972 
11:40	80.3	80.3	82.9	66	67.9	1	3	315	0.00	29.972 
11:45	79.8	79.8	82.1	65	67.0	1	3	292	0.00	29.974 
11:50	79.8	79.8	82.1	65	67.0	0	2	292	0.00	29.974 
11:55	79.9	79.9	82.2	65	67.1	0	1	292	0.00	29.974 
12:00	80.1	80.1	82.6	66	67.7	0	1	292	0.00	29.974 
12:05	80.1	80.1	82.5	65	67.2	1	3	292	0.00	29.974 
12:10	80.3	80.3	82.8	65	67.4	0	2	292	0.00	29.974 
12:15	80.5	80.5	82.9	64	67.2	0	3	292	0.00	29.973 
12:20	80.7	80.7	83.4	65	67.8	0	1	292	0.00	29.973 
12:25	81.6	81.6	84.2	62	67.3	1	4	292	0.00	29.973 
12:30	81.8	81.8	84.3	61	67.0	1	3	315	0.00	29.969 
12:35	82.6	82.6	85.9	63	68.7	1	2	315	0.00	29.969 
12:40	83.4	83.4	86.8	61	68.5	1	4	270	0.00	29.969 
12:45	83.6	83.6	86.4	58	67.2	1	3	270	0.00	29.956 
12:50	84.0	84.0	86.3	55	66.1	1	3	270	0.00	29.956 
12:55	83.6	83.6	85.9	56	66.2	0	1	270	0.00	29.956 
13:00	83.0	83.0	84.9	55	65.1	0	2	270	0.00	29.951 
13:05	83.2	83.2	84.7	53	64.3	0	2	270	0.00	29.951 
13:10	83.8	83.8	86.0	55	65.9	0	3	270	0.00	29.951 
13:15	84.3	84.3	86.2	53	65.3	2	4	270	0.00	29.944 
13:20	84.3	84.3	86.5	54	65.8	1	3	270	0.00	29.944 
13:25	84.9	84.9	86.6	51	64.7	1	2	270	0.00	29.944 
13:30	84.9	84.9	86.8	52	65.3	2	4	270	0.00	29.942 
13:35	84.7	84.7	86.3	51	64.5	1	4	270	0.00	29.942 
13:40	85.1	85.1	86.4	49	63.8	1	3	315	0.00	29.942 
13:45	85.3	85.3	86.6	49	63.9	1	2	315	0.00	29.943 
13:50	85.7	85.7	87.4	50	64.9	1	3	315	0.00	29.943 
13:55	86.5	86.5	89.3	52	66.7	1	3	315	0.00	29.943 
14:00	87.0	87.0	87.9	45	63.1	1	3	315	0.00	29.935 
14:05	86.1	86.1	87.2	47	63.5	1	4	315	0.00	29.935 
14:10	85.1	85.1	86.1	48	63.2	1	3	248	0.00	29.935 
14:15	84.3	84.3	85.5	50	63.6	0	1	315	0.00	29.928 
14:20	83.8	83.8	85.1	51	63.7	0	1	315	0.00	29.928 
14:25	83.6	83.6	85.0	52	64.1	0	2	315	0.00	29.928 
14:30	83.6	83.6	84.6	50	63.0	1	3	292	0.00	29.930 
14:35	82.8	82.8	84.0	52	63.3	0	3	292	0.00	29.930 
14:40	82.0	82.0	82.8	50	61.5	1	2	292	0.00	29.930 
14:45	81.2	81.2	82.1	51	61.3	0	1	292	0.00	29.928 
14:50	81.2	81.2	82.3	53	62.4	0	3	292	0.00	29.928 
14:55	82.4	82.4	83.5	52	63.0	0	3	292	0.00	29.928 
15:00	83.8	83.8	84.7	49	62.6	0	2	315	0.00	29.922 
15:05	83.8	83.8	84.5	48	62.0	1	3	315	0.00	29.922 
15:10	83.6	83.6	84.6	50	63.0	0	1	248	0.00	29.922 
15:15	83.0	83.0	83.9	50	62.4	1	4	22	0.00	29.913 
15:20	82.6	82.6	83.8	52	63.2	0	3	338	0.00	29.913 
15:25	82.0	82.0	83.1	52	62.6	0	1	338	0.00	29.913 
15:30	81.4	81.4	82.5	53	62.6	0	2	338	0.00	29.923 
15:35	80.1	80.1	81.6	57	63.5	3	9	292	0.00	29.923 
15:40	76.8	76.8	78.6	66	64.6	4	9	292	0.01	29.923 
15:45	72.8	72.8	72.8	78	65.5	3	7	270	0.05	29.955 
15:50	70.9	70.9	70.9	84	65.8	2	5	270	0.04	29.955 
15:55	69.9	69.9	69.9	88	66.2	1	3	270	0.01	29.955 
16:00	69.4	69.4	69.4	89	66.0	0	1	270	0.01	29.967 
16:05	69.1	69.1	69.1	90	66.0	0	1	270	0.01	29.967 
16:10	68.9	68.9	68.9	91	66.2	0	1	270	0.01	29.967 
16:15	68.8	68.8	68.8	92	66.4	0	1	270	0.00	29.961 
16:20	68.6	68.6	68.6	92	66.2	0	1	270	0.00	29.961 
16:25	68.8	68.8	68.8	93	66.7	0	1	270	0.01	29.961 
16:30	68.9	68.9	68.9	93	66.8	0	1	270	0.00	29.954 
16:35	68.8	68.8	68.8	93	66.7	0	1	270	0.00	29.954 
16:40	68.6	68.6	68.6	93	66.5	0	2	270	0.00	29.954 
16:45	68.6	68.6	68.6	94	66.8	1	3	270	0.00	29.966 
16:50	68.8	68.8	68.8	94	67.0	0	1	270	0.01	29.966 
16:55	68.8	68.8	68.8	94	67.0	0	1	270	0.00	29.966 
17:00	68.8	68.8	68.8	94	67.0	0	0	---	0.00	29.963 
17:05	68.9	68.9	68.9	94	67.1	0	1	270	0.00	29.963 
17:10	69.1	69.1	69.1	94	67.3	0	0	---	0.00	29.963 
17:15	69.1	69.1	69.1	94	67.3	0	1	270	0.00	29.965 
17:20	69.4	69.4	69.4	95	67.9	0	1	270	0.00	29.965 
17:25	69.6	69.6	69.6	95	68.1	0	1	270	0.00	29.965 
17:30	69.8	69.8	69.8	95	68.3	0	0	---	0.00	29.961 
17:35	70.1	70.1	70.1	95	68.6	0	1	270	0.00	29.961 
17:40	70.3	70.3	70.3	95	68.8	0	1	270	0.00	29.961 
17:45	70.1	70.1	70.1	94	68.3	0	1	270	0.00	29.953 
17:50	69.9	69.9	69.9	94	68.1	0	0	---	0.00	29.953 
17:55	70.1	70.1	70.1	95	68.6	0	1	270	0.00	29.953 
18:00	70.4	70.4	70.4	95	68.9	0	1	270	0.00	29.962 
18:05	70.4	70.4	70.4	94	68.6	0	1	270	0.00	29.962 
18:10	70.4	70.4	70.4	94	68.6	0	1	270	0.00	29.962 
18:15	70.4	70.4	70.4	94	68.6	0	1	270	0.00	29.960 
18:20	70.6	70.6	70.6	94	68.8	0	1	270	0.00	29.960 
18:25	70.6	70.6	70.6	94	68.8	0	1	270	0.00	29.960 
18:30	70.4	70.4	70.4	94	68.6	0	1	270	0.00	29.953 
18:35	70.4	70.4	70.4	93	68.3	0	1	270	0.00	29.953 
18:40	70.4	70.4	70.4	93	68.3	0	1	270	0.00	29.953 
18:45	70.9	70.9	70.9	94	69.1	0	1	270	0.00	29.948 
18:50	71.3	71.3	71.3	93	69.2	0	1	270	0.00	29.948 
18:55	71.1	71.1	71.1	93	69.0	0	2	270	0.00	29.948 
19:00	71.3	71.3	71.3	93	69.2	0	1	270	0.00	29.951 
19:05	71.5	71.5	71.5	92	69.0	0	1	270	0.00	29.951 
19:10	71.8	71.8	71.8	92	69.3	0	1	270	0.00	29.951 
19:15	72.0	72.0	72.0	91	69.2	0	1	270	0.00	29.945 
19:20	72.3	72.3	72.3	91	69.5	0	1	270	0.00	29.945 
19:25	72.5	72.5	72.5	89	69.1	0	1	270	0.00	29.945 
19:30	72.7	72.7	72.7	88	68.9	0	1	270	0.00	29.935 
19:35	72.8	72.8	72.8	88	69.0	0	1	270	0.00	29.935 
19:40	72.8	72.8	72.8	88	69.0	0	1	270	0.00	29.935 
19:45	73.0	73.0	73.0	87	68.9	0	1	270	0.00	29.938 
19:50	73.0	73.0	73.0	88	69.2	0	1	270	0.00	29.938 
19:55	73.0	73.0	73.0	88	69.2	0	1	270	0.00	29.938 
20:00	73.0	73.0	73.0	88	69.2	0	1	270	0.00	29.947 
20:05	72.8	72.8	72.8	87	68.7	0	1	270	0.00	29.947 
20:10	72.7	72.7	72.7	87	68.6	0	1	270	0.00	29.947 
20:15	72.5	72.5	72.5	87	68.4	0	0	---	0.00	29.943 
20:20	72.3	72.3	72.3	88	68.5	0	0	---	0.00	29.943 
20:25	72.3	72.3	72.3	88	68.5	0	0	---	0.00	29.943 
20:30	72.1	72.1	72.1	88	68.3	0	0	---	0.00	29.945 
20:35	72.1	72.1	72.1	89	68.7	0	0	---	0.00	29.945 
20:40	72.0	72.0	72.0	89	68.6	0	0	---	0.00	29.945 
20:45	71.8	71.8	71.8	89	68.4	0	0	---	0.00	29.945 
20:50	71.8	71.8	71.8	90	68.7	0	0	---	0.00	29.945 
20:55	71.6	71.6	71.6	90	68.5	0	0	---	0.00	29.945 
21:00	71.5	71.5	71.5	90	68.4	0	0	---	0.00	29.951 
21:05	71.3	71.3	71.3	91	68.5	0	0	---	0.00	29.951 
21:10	71.1	71.1	71.1	91	68.3	0	0	---	0.00	29.951 
21:15	71.1	71.1	71.1	91	68.3	0	0	---	0.00	29.957 
21:20	71.1	71.1	71.1	92	68.7	0	1	270	0.00	29.957 
21:25	70.9	70.9	70.9	92	68.5	0	1	270	0.00	29.957 
21:30	70.9	70.9	70.9	92	68.5	0	1	270	0.00	29.959 
21:35	70.9	70.9	70.9	92	68.5	0	0	---	0.00	29.959 
21:40	70.9	70.9	70.9	92	68.5	0	1	270	0.00	29.959 
21:45	70.8	70.8	70.8	92	68.4	0	1	270	0.00	29.965 
21:50	70.8	70.8	70.8	92	68.4	0	1	270	0.00	29.965 
21:55	70.6	70.6	70.6	92	68.2	0	1	270	0.00	29.965 
22:00	70.4	70.4	70.4	92	68.0	0	1	270	0.00	29.972 
22:05	70.3	70.3	70.3	91	67.5	0	1	270	0.00	29.972 
22:10	70.1	70.1	70.1	90	67.0	0	1	270	0.00	29.972 
22:15	69.9	69.9	69.9	89	66.5	0	1	270	0.00	29.975 
22:20	69.9	69.9	69.9	87	65.8	0	1	270	0.00	29.975 
22:25	69.9	69.9	69.9	86	65.5	0	1	270	0.00	29.975 
22:30	69.9	69.9	69.9	84	64.8	0	1	270	0.00	29.977 
22:35	69.9	69.9	69.9	83	64.5	0	1	270	0.00	29.977 
22:40	69.8	69.8	69.8	82	64.0	0	1	270	0.00	29.977 
22:45	69.6	69.6	69.6	81	63.5	0	1	270	0.00	29.980 
22:50	69.4	69.4	69.4	81	63.3	0	3	270	0.00	29.980 
22:55	69.4	69.4	69.4	80	63.0	0	2	270	0.00	29.980 
23:00	69.3	69.3	69.3	80	62.9	1	2	292	0.00	29.986 
23:05	69.3	69.3	69.3	80	62.9	0	1	292	0.00	29.986 
23:10	69.1	69.1	69.1	80	62.7	0	1	292	0.00	29.986 
23:15	68.9	68.9	68.9	81	62.8	0	1	292	0.00	29.984 
23:20	68.6	68.6	68.6	81	62.5	0	1	292	0.00	29.984 
23:25	68.4	68.4	68.4	81	62.3	0	1	292	0.00	29.984 
23:30	68.3	68.3	68.3	82	62.6	0	1	292	0.00	29.985 
23:35	68.1	68.1	68.1	82	62.4	0	1	292	0.00	29.985 
23:40	68.1	68.1	68.1	83	62.7	0	1	292	0.00	29.985 
23:45	67.9	67.9	67.9	83	62.5	0	1	292	0.00	29.994 
23:50	67.8	67.8	67.8	83	62.4	0	0	---	0.00	29.994 
23:55	67.6	67.6	67.6	83	62.2	0	1	292	0.00	29.994 

CoCoRaHS
IN-AL-39
A2 Web Hosting
Creative Commons License
GoDaddy
search engine by freefind advanced

loaded 2018-11-12 15:52:04 • last modified 2010-11-18 10:43:29
Privacy PolicyDisclaimer
• wx.awcolley.com is powered by PmWiki v.2002016 •
• all content (unless otherwise noted) © 2018 A W Colley